Cloud Lake, Florida
Current Conditions -  °F | °C
As of 8:53 PM on Tuesday 25 Nov 2014 (Local Time) from KPBI Reporting Station
Few Clouds Few Clouds  
Wind Chill: 80°   Ceiling: Unl
Heat Index: 85°   Visibility: 10mi
Dew Point: 75°   Wind: 8mph
Humidity: 85%   Direction: 180°S
Pressure: 29.96"   Gusts: NA
Location:  26.6662°N, 80.0908°W
Report Text: KPBI 260153Z 18007KT 10SM FEW250 27/24 A2996 RMK AO2 SLP144 T02670239
Loading
Personal Weather Stations






























Interactive Weather Map New forecast layout! Learn more

10-Day Weather Forecast

Advertisements
Track Severe Weather on mobile